sensor_id;sensor_type;location;lat;lon;timestamp;P1;durP1;ratioP1;P2;durP2;ratioP2
15496;SDS011;7850;52.204;5.942;2022-10-26T00:02:50;0.14;;;0.14;;
15496;SDS011;7850;52.204;5.942;2022-10-26T00:02:50;0.10;;;0.10;;
15496;SDS011;7850;52.204;5.942;2022-10-26T00:02:52;0.10;;;0.10;;
15496;SDS011;7850;52.204;5.942;2022-10-26T00:03:45;0.10;;;0.10;;
15496;SDS011;7850;52.204;5.942;2022-10-26T00:04:45;0.10;;;0.10;;
15496;SDS011;7850;52.204;5.942;2022-10-26T00:05:45;0.10;;;0.10;;
15496;SDS011;7850;52.204;5.942;2022-10-26T00:06:45;0.14;;;0.14;;
15496;SDS011;7850;52.204;5.942;2022-10-26T00:07:45;0.10;;;0.10;;
15496;SDS011;7850;52.204;5.942;2022-10-26T00:08:45;0.11;;;0.11;;
15496;SDS011;7850;52.204;5.942;2022-10-26T00:09:45;0.12;;;0.12;;
15496;SDS011;7850;52.204;5.942;2022-10-26T00:10:45;0.10;;;0.10;;
15496;SDS011;7850;52.204;5.942;2022-10-26T00:11:45;0.10;;;0.10;;
15496;SDS011;7850;52.204;5.942;2022-10-26T00:12:47;0.12;;;0.12;;
15496;SDS011;7850;52.204;5.942;2022-10-26T00:13:46;0.10;;;0.10;;
15496;SDS011;7850;52.204;5.942;2022-10-26T00:14:45;0.10;;;0.10;;
15496;SDS011;7850;52.204;5.942;2022-10-26T00:15:45;0.11;;;0.11;;
15496;SDS011;7850;52.204;5.942;2022-10-26T00:16:46;0.10;;;0.10;;
15496;SDS011;7850;52.204;5.942;2022-10-26T00:17:46;0.10;;;0.10;;
15496;SDS011;7850;52.204;5.942;2022-10-26T00:18:46;0.10;;;0.10;;
15496;SDS011;7850;52.204;5.942;2022-10-26T00:19:46;0.10;;;0.10;;
15496;SDS011;7850;52.204;5.942;2022-10-26T00:20:46;0.10;;;0.10;;
15496;SDS011;7850;52.204;5.942;2022-10-26T00:21:46;0.10;;;0.10;;
15496;SDS011;7850;52.204;5.942;2022-10-26T00:22:46;0.10;;;0.10;;
15496;SDS011;7850;52.204;5.942;2022-10-26T00:23:46;0.10;;;0.10;;
15496;SDS011;7850;52.204;5.942;2022-10-26T00:24:46;0.10;;;0.10;;
15496;SDS011;7850;52.204;5.942;2022-10-26T00:25:52;0.10;;;0.10;;
15496;SDS011;7850;52.204;5.942;2022-10-26T00:26:46;0.10;;;0.10;;
15496;SDS011;7850;52.204;5.942;2022-10-26T00:27:46;0.10;;;0.10;;
15496;SDS011;7850;52.204;5.942;2022-10-26T00:28:46;0.10;;;0.10;;
15496;SDS011;7850;52.204;5.942;2022-10-26T00:29:47;0.10;;;0.10;;
15496;SDS011;7850;52.204;5.942;2022-10-26T00:30:47;0.14;;;0.14;;
15496;SDS011;7850;52.204;5.942;2022-10-26T00:31:47;0.10;;;0.10;;
15496;SDS011;7850;52.204;5.942;2022-10-26T00:32:47;0.17;;;0.17;;
15496;SDS011;7850;52.204;5.942;2022-10-26T00:33:47;0.10;;;0.10;;
15496;SDS011;7850;52.204;5.942;2022-10-26T00:34:47;0.19;;;0.19;;
15496;SDS011;7850;52.204;5.942;2022-10-26T00:35:47;0.10;;;0.10;;
15496;SDS011;7850;52.204;5.942;2022-10-26T00:36:47;0.10;;;0.10;;
15496;SDS011;7850;52.204;5.942;2022-10-26T00:37:47;0.10;;;0.10;;
15496;SDS011;7850;52.204;5.942;2022-10-26T00:38:47;0.16;;;0.16;;
15496;SDS011;7850;52.204;5.942;2022-10-26T00:39:47;0.10;;;0.10;;
15496;SDS011;7850;52.204;5.942;2022-10-26T00:40:47;0.11;;;0.11;;
15496;SDS011;7850;52.204;5.942;2022-10-26T00:41:47;0.17;;;0.17;;
15496;SDS011;7850;52.204;5.942;2022-10-26T00:42:47;0.10;;;0.10;;
15496;SDS011;7850;52.204;5.942;2022-10-26T00:43:48;0.10;;;0.10;;
15496;SDS011;7850;52.204;5.942;2022-10-26T00:45:04;0.12;;;0.12;;
15496;SDS011;7850;52.204;5.942;2022-10-26T00:45:48;0.11;;;0.11;;
15496;SDS011;7850;52.204;5.942;2022-10-26T00:46:48;0.20;;;0.20;;
15496;SDS011;7850;52.204;5.942;2022-10-26T00:47:49;0.10;;;0.10;;
15496;SDS011;7850;52.204;5.942;2022-10-26T00:48:49;0.10;;;0.10;;
15496;SDS011;7850;52.204;5.942;2022-10-26T00:49:48;0.10;;;0.10;;
15496;SDS011;7850;52.204;5.942;2022-10-26T00:50:48;0.10;;;0.10;;
15496;SDS011;7850;52.204;5.942;2022-10-26T00:51:49;0.10;;;0.10;;
15496;SDS011;7850;52.204;5.942;2022-10-26T00:52:48;0.10;;;0.10;;
15496;SDS011;7850;52.204;5.942;2022-10-26T00:53:48;0.10;;;0.10;;
15496;SDS011;7850;52.204;5.942;2022-10-26T00:54:48;0.10;;;0.10;;
15496;SDS011;7850;52.204;5.942;2022-10-26T00:55:49;0.10;;;0.10;;
15496;SDS011;7850;52.204;5.942;2022-10-26T00:56:49;0.10;;;0.10;;
15496;SDS011;7850;52.204;5.942;2022-10-26T00:57:49;0.10;;;0.10;;
15496;SDS011;7850;52.204;5.942;2022-10-26T00:58:49;0.10;;;0.10;;
15496;SDS011;7850;52.204;5.942;2022-10-26T00:59:49;0.10;;;0.10;;
15496;SDS011;7850;52.204;5.942;2022-10-26T01:00:49;0.10;;;0.10;;
15496;SDS011;7850;52.204;5.942;2022-10-26T01:01:49;0.10;;;0.10;;
15496;SDS011;7850;52.204;5.942;2022-10-26T01:02:49;0.10;;;0.10;;
15496;SDS011;7850;52.204;5.942;2022-10-26T01:03:49;0.15;;;0.15;;
15496;SDS011;7850;52.204;5.942;2022-10-26T01:04:49;0.10;;;0.10;;
15496;SDS011;7850;52.204;5.942;2022-10-26T01:05:49;0.10;;;0.10;;
15496;SDS011;7850;52.204;5.942;2022-10-26T01:06:49;0.10;;;0.10;;
15496;SDS011;7850;52.204;5.942;2022-10-26T01:07:49;0.10;;;0.10;;
15496;SDS011;7850;52.204;5.942;2022-10-26T01:08:49;0.10;;;0.10;;
15496;SDS011;7850;52.204;5.942;2022-10-26T01:09:49;0.10;;;0.10;;
15496;SDS011;7850;52.204;5.942;2022-10-26T01:10:49;0.10;;;0.10;;
15496;SDS011;7850;52.204;5.942;2022-10-26T01:11:49;0.10;;;0.10;;
15496;SDS011;7850;52.204;5.942;2022-10-26T01:12:50;0.10;;;0.10;;
15496;SDS011;7850;52.204;5.942;2022-10-26T01:13:50;0.10;;;0.10;;
15496;SDS011;7850;52.204;5.942;2022-10-26T01:14:50;0.10;;;0.10;;
15496;SDS011;7850;52.204;5.942;2022-10-26T01:15:50;0.10;;;0.10;;
15496;SDS011;7850;52.204;5.942;2022-10-26T01:16:53;0.10;;;0.10;;
15496;SDS011;7850;52.204;5.942;2022-10-26T01:17:52;0.10;;;0.10;;
15496;SDS011;7850;52.204;5.942;2022-10-26T01:18:52;0.10;;;0.10;;
15496;SDS011;7850;52.204;5.942;2022-10-26T01:20:12;0.10;;;0.10;;
15496;SDS011;7850;52.204;5.942;2022-10-26T01:20:56;0.10;;;0.10;;
15496;SDS011;7850;52.204;5.942;2022-10-26T01:21:50;0.10;;;0.10;;
15496;SDS011;7850;52.204;5.942;2022-10-26T01:22:53;0.10;;;0.10;;
15496;SDS011;7850;52.204;5.942;2022-10-26T01:23:57;0.10;;;0.10;;
15496;SDS011;7850;52.204;5.942;2022-10-26T01:24:55;0.10;;;0.10;;
15496;SDS011;7850;52.204;5.942;2022-10-26T01:26:10;0.10;;;0.10;;
15496;SDS011;7850;52.204;5.942;2022-10-26T01:26:53;0.11;;;0.11;;
15496;SDS011;7850;52.204;5.942;2022-10-26T01:27:51;0.10;;;0.10;;
15496;SDS011;7850;52.204;5.942;2022-10-26T01:28:57;0.10;;;0.10;;
15496;SDS011;7850;52.204;5.942;2022-10-26T01:29:56;0.10;;;0.10;;
15496;SDS011;7850;52.204;5.942;2022-10-26T01:30:51;0.10;;;0.10;;
15496;SDS011;7850;52.204;5.942;2022-10-26T01:31:52;0.10;;;0.10;;
15496;SDS011;7850;52.204;5.942;2022-10-26T01:32:55;0.10;;;0.10;;
15496;SDS011;7850;52.204;5.942;2022-10-26T01:33:51;0.10;;;0.10;;
15496;SDS011;7850;52.204;5.942;2022-10-26T01:34:52;0.18;;;0.18;;
15496;SDS011;7850;52.204;5.942;2022-10-26T01:35:53;0.10;;;0.10;;
15496;SDS011;7850;52.204;5.942;2022-10-26T01:36:51;0.10;;;0.10;;
15496;SDS011;7850;52.204;5.942;2022-10-26T01:37:53;0.10;;;0.10;;
15496;SDS011;7850;52.204;5.942;2022-10-26T01:38:53;0.10;;;0.10;;
15496;SDS011;7850;52.204;5.942;2022-10-26T01:39:52;0.10;;;0.10;;
15496;SDS011;7850;52.204;5.942;2022-10-26T01:40:53;0.10;;;0.10;;
15496;SDS011;7850;52.204;5.942;2022-10-26T01:41:54;0.15;;;0.15;;
15496;SDS011;7850;52.204;5.942;2022-10-26T01:42:52;0.10;;;0.10;;
15496;SDS011;7850;52.204;5.942;2022-10-26T01:43:54;0.10;;;0.10;;
15496;SDS011;7850;52.204;5.942;2022-10-26T01:44:52;0.10;;;0.10;;
15496;SDS011;7850;52.204;5.942;2022-10-26T01:45:52;0.10;;;0.10;;
15496;SDS011;7850;52.204;5.942;2022-10-26T01:46:52;0.19;;;0.19;;
15496;SDS011;7850;52.204;5.942;2022-10-26T01:47:52;0.10;;;0.10;;
15496;SDS011;7850;52.204;5.942;2022-10-26T01:48:53;0.18;;;0.18;;
15496;SDS011;7850;52.204;5.942;2022-10-26T01:49:53;0.19;;;0.19;;
15496;SDS011;7850;52.204;5.942;2022-10-26T01:50:52;0.10;;;0.10;;
15496;SDS011;7850;52.204;5.942;2022-10-26T01:51:52;0.19;;;0.19;;
15496;SDS011;7850;52.204;5.942;2022-10-26T01:52:52;0.10;;;0.10;;
15496;SDS011;7850;52.204;5.942;2022-10-26T01:53:52;0.10;;;0.10;;
15496;SDS011;7850;52.204;5.942;2022-10-26T01:54:58;0.16;;;0.16;;
15496;SDS011;7850;52.204;5.942;2022-10-26T01:55:52;0.10;;;0.10;;
15496;SDS011;7850;52.204;5.942;2022-10-26T01:56:52;0.10;;;0.10;;
15496;SDS011;7850;52.204;5.942;2022-10-26T01:57:52;0.10;;;0.10;;
15496;SDS011;7850;52.204;5.942;2022-10-26T01:59:00;0.10;;;0.10;;
15496;SDS011;7850;52.204;5.942;2022-10-26T01:59:56;0.20;;;0.20;;
15496;SDS011;7850;52.204;5.942;2022-10-26T02:00:56;0.18;;;0.18;;
15496;SDS011;7850;52.204;5.942;2022-10-26T02:02:32;0.10;;;0.10;;
15496;SDS011;7850;52.204;5.942;2022-10-26T02:02:54;0.10;;;0.10;;
15496;SDS011;7850;52.204;5.942;2022-10-26T02:03:54;0.10;;;0.10;;
15496;SDS011;7850;52.204;5.942;2022-10-26T02:04:59;0.10;;;0.10;;
15496;SDS011;7850;52.204;5.942;2022-10-26T02:05:57;0.10;;;0.10;;
15496;SDS011;7850;52.204;5.942;2022-10-26T02:06:55;0.10;;;0.10;;
15496;SDS011;7850;52.204;5.942;2022-10-26T02:07:54;0.10;;;0.10;;
15496;SDS011;7850;52.204;5.942;2022-10-26T02:08:56;0.10;;;0.10;;
15496;SDS011;7850;52.204;5.942;2022-10-26T02:09:55;0.12;;;0.12;;
15496;SDS011;7850;52.204;5.942;2022-10-26T02:10:55;0.18;;;0.18;;
15496;SDS011;7850;52.204;5.942;2022-10-26T02:11:53;0.20;;;0.20;;
15496;SDS011;7850;52.204;5.942;2022-10-26T02:12:56;0.10;;;0.10;;
15496;SDS011;7850;52.204;5.942;2022-10-26T02:13:54;0.10;;;0.10;;
15496;SDS011;7850;52.204;5.942;2022-10-26T02:14:55;0.10;;;0.10;;
15496;SDS011;7850;52.204;5.942;2022-10-26T02:15:55;0.28;;;0.28;;
15496;SDS011;7850;52.204;5.942;2022-10-26T02:16:54;0.58;;;0.58;;
15496;SDS011;7850;52.204;5.942;2022-10-26T02:17:55;0.40;;;0.40;;
15496;SDS011;7850;52.204;5.942;2022-10-26T02:18:57;0.57;;;0.57;;
15496;SDS011;7850;52.204;5.942;2022-10-26T02:19:55;0.40;;;0.40;;
15496;SDS011;7850;52.204;5.942;2022-10-26T02:20:55;0.48;;;0.48;;
15496;SDS011;7850;52.204;5.942;2022-10-26T02:21:55;0.70;;;0.70;;
15496;SDS011;7850;52.204;5.942;2022-10-26T02:22:54;0.59;;;0.59;;
15496;SDS011;7850;52.204;5.942;2022-10-26T02:23:54;0.43;;;0.43;;
15496;SDS011;7850;52.204;5.942;2022-10-26T02:24:54;0.40;;;0.40;;
15496;SDS011;7850;52.204;5.942;2022-10-26T02:25:55;0.53;;;0.53;;
15496;SDS011;7850;52.204;5.942;2022-10-26T02:26:54;0.66;;;0.66;;
15496;SDS011;7850;52.204;5.942;2022-10-26T02:27:55;0.59;;;0.59;;
15496;SDS011;7850;52.204;5.942;2022-10-26T02:28:56;0.52;;;0.52;;
15496;SDS011;7850;52.204;5.942;2022-10-26T02:29:55;0.60;;;0.60;;
15496;SDS011;7850;52.204;5.942;2022-10-26T02:30:55;0.53;;;0.53;;
15496;SDS011;7850;52.204;5.942;2022-10-26T02:31:55;0.49;;;0.49;;
15496;SDS011;7850;52.204;5.942;2022-10-26T02:32:55;0.62;;;0.62;;
15496;SDS011;7850;52.204;5.942;2022-10-26T02:33:56;0.70;;;0.70;;
15496;SDS011;7850;52.204;5.942;2022-10-26T02:34:55;0.59;;;0.59;;
15496;SDS011;7850;52.204;5.942;2022-10-26T02:35:55;0.17;;;0.17;;
15496;SDS011;7850;52.204;5.942;2022-10-26T02:36:56;0.66;;;0.66;;
15496;SDS011;7850;52.204;5.942;2022-10-26T02:37:56;0.60;;;0.60;;
15496;SDS011;7850;52.204;5.942;2022-10-26T02:38:56;0.72;;;0.72;;
15496;SDS011;7850;52.204;5.942;2022-10-26T02:39:55;0.66;;;0.66;;
15496;SDS011;7850;52.204;5.942;2022-10-26T02:40:55;0.44;;;0.44;;
15496;SDS011;7850;52.204;5.942;2022-10-26T02:41:55;0.30;;;0.30;;
15496;SDS011;7850;52.204;5.942;2022-10-26T02:42:56;0.30;;;0.30;;
15496;SDS011;7850;52.204;5.942;2022-10-26T02:43:56;0.30;;;0.30;;
15496;SDS011;7850;52.204;5.942;2022-10-26T02:44:56;0.30;;;0.30;;
15496;SDS011;7850;52.204;5.942;2022-10-26T02:45:56;0.33;;;0.33;;
15496;SDS011;7850;52.204;5.942;2022-10-26T02:46:56;0.30;;;0.30;;
15496;SDS011;7850;52.204;5.942;2022-10-26T02:47:56;0.40;;;0.40;;
15496;SDS011;7850;52.204;5.942;2022-10-26T02:48:56;0.31;;;0.31;;
15496;SDS011;7850;52.204;5.942;2022-10-26T02:49:56;0.73;;;0.73;;
15496;SDS011;7850;52.204;5.942;2022-10-26T02:50:57;0.62;;;0.62;;
15496;SDS011;7850;52.204;5.942;2022-10-26T02:51:58;0.54;;;0.54;;
15496;SDS011;7850;52.204;5.942;2022-10-26T02:52:57;0.61;;;0.61;;
15496;SDS011;7850;52.204;5.942;2022-10-26T02:53:56;0.67;;;0.67;;
15496;SDS011;7850;52.204;5.942;2022-10-26T02:54:58;0.20;;;0.20;;
15496;SDS011;7850;52.204;5.942;2022-10-26T02:55:56;0.30;;;0.30;;
15496;SDS011;7850;52.204;5.942;2022-10-26T02:56:57;0.23;;;0.23;;
15496;SDS011;7850;52.204;5.942;2022-10-26T02:57:57;0.30;;;0.30;;
15496;SDS011;7850;52.204;5.942;2022-10-26T02:58:57;0.20;;;0.20;;
15496;SDS011;7850;52.204;5.942;2022-10-26T02:59:56;0.20;;;0.20;;
15496;SDS011;7850;52.204;5.942;2022-10-26T03:00:56;0.37;;;0.37;;
15496;SDS011;7850;52.204;5.942;2022-10-26T03:01:56;0.40;;;0.40;;
15496;SDS011;7850;52.204;5.942;2022-10-26T03:02:57;0.40;;;0.40;;
15496;SDS011;7850;52.204;5.942;2022-10-26T03:03:57;0.40;;;0.40;;
15496;SDS011;7850;52.204;5.942;2022-10-26T03:04:59;0.32;;;0.32;;
15496;SDS011;7850;52.204;5.942;2022-10-26T03:05:57;0.35;;;0.35;;
15496;SDS011;7850;52.204;5.942;2022-10-26T03:06:57;0.20;;;0.20;;
15496;SDS011;7850;52.204;5.942;2022-10-26T03:07:57;0.23;;;0.23;;
15496;SDS011;7850;52.204;5.942;2022-10-26T03:08:57;0.20;;;0.20;;
15496;SDS011;7850;52.204;5.942;2022-10-26T03:09:57;0.20;;;0.20;;
15496;SDS011;7850;52.204;5.942;2022-10-26T03:10:57;0.27;;;0.27;;
15496;SDS011;7850;52.204;5.942;2022-10-26T03:11:57;0.20;;;0.20;;
15496;SDS011;7850;52.204;5.942;2022-10-26T03:12:57;0.20;;;0.20;;
15496;SDS011;7850;52.204;5.942;2022-10-26T03:13:57;0.20;;;0.20;;
15496;SDS011;7850;52.204;5.942;2022-10-26T03:14:57;0.20;;;0.20;;
15496;SDS011;7850;52.204;5.942;2022-10-26T03:15:57;0.20;;;0.20;;
15496;SDS011;7850;52.204;5.942;2022-10-26T03:16:58;0.20;;;0.20;;
15496;SDS011;7850;52.204;5.942;2022-10-26T03:17:58;0.20;;;0.20;;
15496;SDS011;7850;52.204;5.942;2022-10-26T03:18:58;0.20;;;0.20;;
15496;SDS011;7850;52.204;5.942;2022-10-26T03:19:58;0.20;;;0.20;;
15496;SDS011;7850;52.204;5.942;2022-10-26T03:20:58;0.15;;;0.15;;
15496;SDS011;7850;52.204;5.942;2022-10-26T03:21:58;0.20;;;0.20;;
15496;SDS011;7850;52.204;5.942;2022-10-26T03:22:58;0.20;;;0.20;;
15496;SDS011;7850;52.204;5.942;2022-10-26T03:23:58;0.20;;;0.20;;
15496;SDS011;7850;52.204;5.942;2022-10-26T03:24:58;0.15;;;0.15;;
15496;SDS011;7850;52.204;5.942;2022-10-26T03:25:58;0.20;;;0.20;;
15496;SDS011;7850;52.204;5.942;2022-10-26T03:26:58;0.20;;;0.20;;
15496;SDS011;7850;52.204;5.942;2022-10-26T03:27:58;0.20;;;0.20;;
15496;SDS011;7850;52.204;5.942;2022-10-26T03:28:58;0.20;;;0.20;;
15496;SDS011;7850;52.204;5.942;2022-10-26T03:29:58;0.20;;;0.20;;
15496;SDS011;7850;52.204;5.942;2022-10-26T03:30:58;0.19;;;0.19;;
15496;SDS011;7850;52.204;5.942;2022-10-26T03:31:59;0.20;;;0.20;;
15496;SDS011;7850;52.204;5.942;2022-10-26T03:32:59;0.12;;;0.12;;
15496;SDS011;7850;52.204;5.942;2022-10-26T03:33:59;0.20;;;0.20;;
15496;SDS011;7850;52.204;5.942;2022-10-26T03:34:59;0.20;;;0.20;;
15496;SDS011;7850;52.204;5.942;2022-10-26T03:35:59;0.10;;;0.10;;
15496;SDS011;7850;52.204;5.942;2022-10-26T03:36:59;0.20;;;0.20;;
15496;SDS011;7850;52.204;5.942;2022-10-26T03:37:59;0.10;;;0.10;;
15496;SDS011;7850;52.204;5.942;2022-10-26T03:38:59;0.10;;;0.10;;
15496;SDS011;7850;52.204;5.942;2022-10-26T03:39:59;0.10;;;0.10;;
15496;SDS011;7850;52.204;5.942;2022-10-26T03:40:59;0.14;;;0.14;;
15496;SDS011;7850;52.204;5.942;2022-10-26T03:41:59;0.14;;;0.14;;
15496;SDS011;7850;52.204;5.942;2022-10-26T03:42:59;0.13;;;0.13;;
15496;SDS011;7850;52.204;5.942;2022-10-26T03:43:59;0.18;;;0.18;;
15496;SDS011;7850;52.204;5.942;2022-10-26T03:44:59;0.20;;;0.20;;
15496;SDS011;7850;52.204;5.942;2022-10-26T03:46:00;0.20;;;0.20;;
15496;SDS011;7850;52.204;5.942;2022-10-26T03:47:00;0.12;;;0.12;;
15496;SDS011;7850;52.204;5.942;2022-10-26T03:52:00;0.20;;;0.20;;
15496;SDS011;7850;52.204;5.942;2022-10-26T03:53:00;0.20;;;0.20;;
15496;SDS011;7850;52.204;5.942;2022-10-26T03:54:00;0.20;;;0.20;;
15496;SDS011;7850;52.204;5.942;2022-10-26T03:55:00;0.20;;;0.20;;
15496;SDS011;7850;52.204;5.942;2022-10-26T03:56:00;0.10;;;0.10;;
15496;SDS011;7850;52.204;5.942;2022-10-26T03:57:00;0.17;;;0.17;;
15496;SDS011;7850;52.204;5.942;2022-10-26T03:58:00;0.10;;;0.10;;
15496;SDS011;7850;52.204;5.942;2022-10-26T03:59:00;0.14;;;0.14;;
15496;SDS011;7850;52.204;5.942;2022-10-26T04:00:01;0.20;;;0.20;;
15496;SDS011;7850;52.204;5.942;2022-10-26T04:01:00;0.15;;;0.15;;
15496;SDS011;7850;52.204;5.942;2022-10-26T04:02:01;0.20;;;0.20;;
15496;SDS011;7850;52.204;5.942;2022-10-26T04:03:01;0.19;;;0.19;;
15496;SDS011;7850;52.204;5.942;2022-10-26T04:04:01;0.17;;;0.17;;
15496;SDS011;7850;52.204;5.942;2022-10-26T04:05:01;0.10;;;0.10;;
15496;SDS011;7850;52.204;5.942;2022-10-26T04:06:01;0.16;;;0.16;;
15496;SDS011;7850;52.204;5.942;2022-10-26T04:07:01;0.19;;;0.19;;
15496;SDS011;7850;52.204;5.942;2022-10-26T04:08:01;0.20;;;0.20;;
15496;SDS011;7850;52.204;5.942;2022-10-26T04:09:01;0.11;;;0.11;;
15496;SDS011;7850;52.204;5.942;2022-10-26T04:10:02;0.16;;;0.16;;
15496;SDS011;7850;52.204;5.942;2022-10-26T04:11:01;0.20;;;0.20;;
15496;SDS011;7850;52.204;5.942;2022-10-26T04:12:01;0.20;;;0.20;;
15496;SDS011;7850;52.204;5.942;2022-10-26T04:13:01;0.18;;;0.18;;
15496;SDS011;7850;52.204;5.942;2022-10-26T04:14:01;0.17;;;0.17;;
15496;SDS011;7850;52.204;5.942;2022-10-26T04:15:02;0.20;;;0.20;;
15496;SDS011;7850;52.204;5.942;2022-10-26T04:16:01;0.20;;;0.20;;
15496;SDS011;7850;52.204;5.942;2022-10-26T04:17:01;0.20;;;0.20;;
15496;SDS011;7850;52.204;5.942;2022-10-26T04:18:02;0.20;;;0.20;;
15496;SDS011;7850;52.204;5.942;2022-10-26T04:19:02;0.20;;;0.20;;
15496;SDS011;7850;52.204;5.942;2022-10-26T04:20:02;0.20;;;0.20;;
15496;SDS011;7850;52.204;5.942;2022-10-26T04:21:02;0.19;;;0.19;;
15496;SDS011;7850;52.204;5.942;2022-10-26T04:22:02;0.20;;;0.20;;
15496;SDS011;7850;52.204;5.942;2022-10-26T04:23:02;0.20;;;0.20;;
15496;SDS011;7850;52.204;5.942;2022-10-26T04:24:02;0.20;;;0.20;;
15496;SDS011;7850;52.204;5.942;2022-10-26T04:25:02;0.20;;;0.20;;
15496;SDS011;7850;52.204;5.942;2022-10-26T04:26:03;0.20;;;0.20;;
15496;SDS011;7850;52.204;5.942;2022-10-26T04:27:02;0.20;;;0.20;;
15496;SDS011;7850;52.204;5.942;2022-10-26T04:28:03;0.20;;;0.20;;
15496;SDS011;7850;52.204;5.942;2022-10-26T04:29:02;0.17;;;0.17;;
15496;SDS011;7850;52.204;5.942;2022-10-26T04:30:05;0.20;;;0.20;;
15496;SDS011;7850;52.204;5.942;2022-10-26T04:31:02;0.18;;;0.18;;
15496;SDS011;7850;52.204;5.942;2022-10-26T04:32:02;0.20;;;0.20;;
15496;SDS011;7850;52.204;5.942;2022-10-26T04:33:03;0.20;;;0.20;;
15496;SDS011;7850;52.204;5.942;2022-10-26T04:34:02;0.20;;;0.20;;
15496;SDS011;7850;52.204;5.942;2022-10-26T04:35:03;0.18;;;0.18;;
15496;SDS011;7850;52.204;5.942;2022-10-26T04:36:03;0.18;;;0.18;;
15496;SDS011;7850;52.204;5.942;2022-10-26T04:37:03;0.20;;;0.20;;
15496;SDS011;7850;52.204;5.942;2022-10-26T04:38:03;0.20;;;0.20;;
15496;SDS011;7850;52.204;5.942;2022-10-26T04:39:03;0.17;;;0.17;;
15496;SDS011;7850;52.204;5.942;2022-10-26T04:40:04;0.17;;;0.17;;
15496;SDS011;7850;52.204;5.942;2022-10-26T04:41:03;0.13;;;0.13;;
15496;SDS011;7850;52.204;5.942;2022-10-26T04:42:03;0.18;;;0.18;;
15496;SDS011;7850;52.204;5.942;2022-10-26T04:43:03;0.18;;;0.18;;
15496;SDS011;7850;52.204;5.942;2022-10-26T04:44:03;0.20;;;0.20;;
15496;SDS011;7850;52.204;5.942;2022-10-26T04:45:03;0.15;;;0.15;;
15496;SDS011;7850;52.204;5.942;2022-10-26T04:46:03;0.18;;;0.18;;
15496;SDS011;7850;52.204;5.942;2022-10-26T04:47:03;0.20;;;0.20;;
15496;SDS011;7850;52.204;5.942;2022-10-26T04:48:04;0.20;;;0.20;;
15496;SDS011;7850;52.204;5.942;2022-10-26T04:49:03;0.13;;;0.13;;
15496;SDS011;7850;52.204;5.942;2022-10-26T04:50:04;0.20;;;0.20;;
15496;SDS011;7850;52.204;5.942;2022-10-26T04:51:03;0.20;;;0.20;;
15496;SDS011;7850;52.204;5.942;2022-10-26T04:52:04;0.20;;;0.20;;
15496;SDS011;7850;52.204;5.942;2022-10-26T04:53:03;0.20;;;0.20;;
15496;SDS011;7850;52.204;5.942;2022-10-26T04:54:04;0.20;;;0.20;;
15496;SDS011;7850;52.204;5.942;2022-10-26T04:55:04;0.18;;;0.18;;
15496;SDS011;7850;52.204;5.942;2022-10-26T04:56:04;0.20;;;0.20;;
15496;SDS011;7850;52.204;5.942;2022-10-26T04:57:04;0.20;;;0.20;;
15496;SDS011;7850;52.204;5.942;2022-10-26T04:58:04;0.20;;;0.20;;
15496;SDS011;7850;52.204;5.942;2022-10-26T04:59:04;0.17;;;0.17;;
15496;SDS011;7850;52.204;5.942;2022-10-26T05:00:06;0.20;;;0.20;;
15496;SDS011;7850;52.204;5.942;2022-10-26T05:01:04;0.20;;;0.20;;
15496;SDS011;7850;52.204;5.942;2022-10-26T05:02:04;0.20;;;0.20;;
15496;SDS011;7850;52.204;5.942;2022-10-26T05:03:05;0.20;;;0.20;;
15496;SDS011;7850;52.204;5.942;2022-10-26T05:04:04;0.20;;;0.20;;
15496;SDS011;7850;52.204;5.942;2022-10-26T05:05:04;0.20;;;0.20;;
15496;SDS011;7850;52.204;5.942;2022-10-26T05:06:05;0.20;;;0.20;;
15496;SDS011;7850;52.204;5.942;2022-10-26T05:07:05;0.10;;;0.10;;
15496;SDS011;7850;52.204;5.942;2022-10-26T05:08:05;0.14;;;0.14;;
15496;SDS011;7850;52.204;5.942;2022-10-26T05:09:05;0.17;;;0.17;;
15496;SDS011;7850;52.204;5.942;2022-10-26T05:10:05;0.19;;;0.19;;
15496;SDS011;7850;52.204;5.942;2022-10-26T05:11:05;0.20;;;0.20;;
15496;SDS011;7850;52.204;5.942;2022-10-26T05:12:05;0.20;;;0.20;;
15496;SDS011;7850;52.204;5.942;2022-10-26T05:13:05;0.17;;;0.17;;
15496;SDS011;7850;52.204;5.942;2022-10-26T05:14:05;0.20;;;0.20;;
15496;SDS011;7850;52.204;5.942;2022-10-26T05:15:05;0.20;;;0.20;;
15496;SDS011;7850;52.204;5.942;2022-10-26T05:16:05;0.10;;;0.10;;
15496;SDS011;7850;52.204;5.942;2022-10-26T05:17:05;0.20;;;0.20;;
15496;SDS011;7850;52.204;5.942;2022-10-26T05:18:05;0.10;;;0.10;;
15496;SDS011;7850;52.204;5.942;2022-10-26T05:19:05;0.15;;;0.15;;
15496;SDS011;7850;52.204;5.942;2022-10-26T05:20:06;0.20;;;0.20;;
15496;SDS011;7850;52.204;5.942;2022-10-26T05:21:05;0.20;;;0.20;;
15496;SDS011;7850;52.204;5.942;2022-10-26T05:22:05;0.20;;;0.20;;
15496;SDS011;7850;52.204;5.942;2022-10-26T05:23:06;0.20;;;0.20;;
15496;SDS011;7850;52.204;5.942;2022-10-26T05:24:06;0.10;;;0.10;;
15496;SDS011;7850;52.204;5.942;2022-10-26T05:25:06;0.10;;;0.10;;
15496;SDS011;7850;52.204;5.942;2022-10-26T05:26:06;0.18;;;0.18;;
15496;SDS011;7850;52.204;5.942;2022-10-26T05:27:06;0.20;;;0.20;;
15496;SDS011;7850;52.204;5.942;2022-10-26T05:28:08;0.14;;;0.14;;
15496;SDS011;7850;52.204;5.942;2022-10-26T05:29:06;0.14;;;0.14;;
15496;SDS011;7850;52.204;5.942;2022-10-26T05:30:08;0.20;;;0.20;;
15496;SDS011;7850;52.204;5.942;2022-10-26T05:31:06;0.20;;;0.20;;
15496;SDS011;7850;52.204;5.942;2022-10-26T05:32:06;0.18;;;0.18;;
15496;SDS011;7850;52.204;5.942;2022-10-26T05:33:07;0.18;;;0.18;;
15496;SDS011;7850;52.204;5.942;2022-10-26T05:34:06;0.20;;;0.20;;
15496;SDS011;7850;52.204;5.942;2022-10-26T05:35:07;0.16;;;0.16;;
15496;SDS011;7850;52.204;5.942;2022-10-26T05:36:07;0.19;;;0.19;;
15496;SDS011;7850;52.204;5.942;2022-10-26T05:37:07;0.19;;;0.19;;
15496;SDS011;7850;52.204;5.942;2022-10-26T05:38:07;0.19;;;0.19;;
15496;SDS011;7850;52.204;5.942;2022-10-26T05:39:07;0.20;;;0.20;;
15496;SDS011;7850;52.204;5.942;2022-10-26T05:40:07;0.10;;;0.10;;
15496;SDS011;7850;52.204;5.942;2022-10-26T05:41:07;0.10;;;0.10;;
15496;SDS011;7850;52.204;5.942;2022-10-26T05:42:07;0.20;;;0.20;;
15496;SDS011;7850;52.204;5.942;2022-10-26T05:43:07;0.20;;;0.20;;
15496;SDS011;7850;52.204;5.942;2022-10-26T05:44:07;0.10;;;0.10;;
15496;SDS011;7850;52.204;5.942;2022-10-26T05:45:07;0.17;;;0.17;;
15496;SDS011;7850;52.204;5.942;2022-10-26T05:46:07;0.20;;;0.20;;
15496;SDS011;7850;52.204;5.942;2022-10-26T05:47:07;0.20;;;0.20;;
15496;SDS011;7850;52.204;5.942;2022-10-26T05:48:07;0.10;;;0.10;;
15496;SDS011;7850;52.204;5.942;2022-10-26T05:49:07;0.14;;;0.14;;
15496;SDS011;7850;52.204;5.942;2022-10-26T05:50:08;0.15;;;0.15;;
15496;SDS011;7850;52.204;5.942;2022-10-26T05:51:08;0.14;;;0.14;;
15496;SDS011;7850;52.204;5.942;2022-10-26T05:52:08;0.20;;;0.20;;
15496;SDS011;7850;52.204;5.942;2022-10-26T05:53:08;0.10;;;0.10;;
15496;SDS011;7850;52.204;5.942;2022-10-26T05:54:08;0.20;;;0.20;;
15496;SDS011;7850;52.204;5.942;2022-10-26T05:55:11;0.20;;;0.20;;
15496;SDS011;7850;52.204;5.942;2022-10-26T05:56:10;0.20;;;0.20;;
15496;SDS011;7850;52.204;5.942;2022-10-26T05:57:10;0.20;;;0.20;;
15496;SDS011;7850;52.204;5.942;2022-10-26T05:58:09;0.10;;;0.10;;
15496;SDS011;7850;52.204;5.942;2022-10-26T05:59:09;0.19;;;0.19;;
15496;SDS011;7850;52.204;5.942;2022-10-26T06:00:09;0.11;;;0.11;;
15496;SDS011;7850;52.204;5.942;2022-10-26T06:01:10;0.10;;;0.10;;
15496;SDS011;7850;52.204;5.942;2022-10-26T06:02:10;0.20;;;0.20;;
15496;SDS011;7850;52.204;5.942;2022-10-26T06:03:12;0.11;;;0.11;;
15496;SDS011;7850;52.204;5.942;2022-10-26T06:04:11;0.14;;;0.14;;
15496;SDS011;7850;52.204;5.942;2022-10-26T06:05:08;0.10;;;0.10;;
15496;SDS011;7850;52.204;5.942;2022-10-26T06:06:09;0.12;;;0.12;;
15496;SDS011;7850;52.204;5.942;2022-10-26T06:07:10;0.18;;;0.18;;
15496;SDS011;7850;52.204;5.942;2022-10-26T06:08:09;0.20;;;0.20;;
15496;SDS011;7850;52.204;5.942;2022-10-26T06:09:09;0.11;;;0.11;;
15496;SDS011;7850;52.204;5.942;2022-10-26T06:10:09;0.11;;;0.11;;
15496;SDS011;7850;52.204;5.942;2022-10-26T06:11:09;0.10;;;0.10;;